Time;durP1;ratioP1;P1;durP2;ratioP2;P2;SDS_P1;SDS_P2;PMS_P1;PMS_P2;Temp;Humidity;BMP_temperature;BMP_pressure;BME280_temperature;BME280_humidity;BME280_pressure;Samples;Min_cycle;Max_cycle;Signal;HPM_P1;HPM_P2
2021/11/04 00:01:21;;;;;;;;;;;410.00;1945.60;;;;;;5096216;28;19949;-66
2021/11/04 00:03:47;;;;;;;;;;;410.00;1945.60;;;;;;5114884;28;19986;-66
2021/11/04 00:06:12;;;;;;;;;;;410.00;1945.60;;;;;;5114729;28;19904;-67
2021/11/04 00:08:38;;;;;;;;;;;410.00;1945.60;;;;;;5096144;28;19916;-66
2021/11/04 00:11:03;;;;;;;;;;;410.00;1945.60;;;;;;5114730;28;19921;-67
2021/11/04 00:13:29;;;;;;;;;;;410.00;1945.60;;;;;;5114757;28;20041;-66
2021/11/04 00:15:54;;;;;;;;;;;410.00;1945.60;;;;;;5096126;28;19963;-66
2021/11/04 00:18:20;;;;;;;;;;;410.00;1945.60;;;;;;5113824;28;19907;-67
2021/11/04 00:20:46;;;;;;;;;;;410.00;1945.60;;;;;;5114646;28;20318;-67
2021/11/04 00:23:11;;;;;;;;;;;409.90;1945.60;;;;;;5114660;28;19903;-67
2021/11/04 00:25:37;;;;;;;;;;;409.90;1945.60;;;;;;5095863;28;19946;-67
2021/11/04 00:28:03;;;;;;;;;;;410.00;1945.60;;;;;;5114450;28;19908;-66
2021/11/04 00:30:29;;;;;;;;;;;409.90;1945.60;;;;;;5114464;28;19908;-66
2021/11/04 00:32:55;;;;;;;;;;;410.00;1945.60;;;;;;5114379;28;19915;-66
2021/11/04 00:35:22;;;;;;;;;;;409.90;1945.60;;;;;;5114489;28;19946;-66
2021/11/04 00:37:47;;;;;;;;;;;410.00;1920.00;;;;;;5114653;28;19904;-66
2021/11/04 00:40:15;;;;;;;;;;;410.00;1945.60;;;;;;5114430;28;19911;-66
2021/11/04 00:42:41;;;;;;;;;;;410.00;1945.60;;;;;;5114261;28;19903;-67
2021/11/04 00:45:07;;;;;;;;;;;409.90;1920.00;;;;;;5095804;28;19904;-67
2021/11/04 00:47:33;;;;;;;;;;;410.00;1945.60;;;;;;5113534;28;20014;-67
2021/11/04 00:49:58;;;;;;;;;;;410.00;1945.60;;;;;;5095067;28;19961;-69
2021/11/04 00:52:24;;;;;;;;;;;410.00;1920.00;;;;;;5114370;28;20353;-66
2021/11/04 00:54:50;;;;;;;;;;;410.00;1945.60;;;;;;5114140;28;19903;-66
2021/11/04 00:57:15;;;;;;;;;;;410.00;1945.60;;;;;;5113681;28;19939;-66
2021/11/04 00:59:41;;;;;;;;;;;410.00;1945.60;;;;;;5114273;28;20384;-67
2021/11/04 01:02:06;;;;;;;;;;;410.00;1945.60;;;;;;5095373;28;19949;-67
2021/11/04 01:04:33;;;;;;;;;;;410.00;1945.60;;;;;;5114273;28;20337;-66
2021/11/04 01:06:58;;;;;;;;;;;410.10;1945.60;;;;;;5114347;28;19903;-67
2021/11/04 01:09:24;;;;;;;;;;;410.10;1920.00;;;;;;5114006;28;19914;-67
2021/11/04 01:11:49;;;;;;;;;;;410.00;1920.00;;;;;;5114083;28;19911;-67
2021/11/04 01:14:15;;;;;;;;;;;410.10;1920.00;;;;;;5095826;28;19946;-67
2021/11/04 01:16:41;;;;;;;;;;;410.10;1920.00;;;;;;5114818;28;19957;-66
2021/11/04 01:19:08;;;;;;;;;;;410.10;1920.00;;;;;;5095534;28;19904;-67
2021/11/04 01:21:34;;;;;;;;;;;410.10;1920.00;;;;;;5113898;28;19999;-66
2021/11/04 01:23:59;;;;;;;;;;;410.10;1945.60;;;;;;5095688;28;19998;-67
2021/11/04 01:26:25;;;;;;;;;;;410.10;1920.00;;;;;;5114077;28;20349;-67
2021/11/04 01:28:50;;;;;;;;;;;410.10;1920.00;;;;;;5095468;28;19904;-66
2021/11/04 01:31:16;;;;;;;;;;;410.10;1920.00;;;;;;5116376;28;19918;-66
2021/11/04 01:33:41;;;;;;;;;;;410.10;1945.60;;;;;;5117448;28;19937;-67
2021/11/04 01:36:07;;;;;;;;;;;410.10;1945.60;;;;;;5117641;28;19904;-66
2021/11/04 01:38:32;;;;;;;;;;;410.10;1920.00;;;;;;5117417;28;20353;-67
2021/11/04 01:40:58;;;;;;;;;;;410.10;1920.00;;;;;;5117520;28;19911;-66
2021/11/04 01:43:24;;;;;;;;;;;410.10;1920.00;;;;;;5098806;28;19915;-66
2021/11/04 01:45:50;;;;;;;;;;;410.10;1920.00;;;;;;5117598;28;19939;-67
2021/11/04 01:48:16;;;;;;;;;;;410.10;1920.00;;;;;;5116983;28;19968;-66
2021/11/04 01:50:43;;;;;;;;;;;410.10;1920.00;;;;;;5117028;28;19982;-66
2021/11/04 01:53:08;;;;;;;;;;;410.10;1945.60;;;;;;5117281;28;19918;-66
2021/11/04 01:55:34;;;;;;;;;;;410.10;1945.60;;;;;;5117061;28;19908;-66
2021/11/04 01:58:00;;;;;;;;;;;410.10;1945.60;;;;;;5116718;28;19910;-66
2021/11/04 02:00:27;;;;;;;;;;;410.10;1945.60;;;;;;5117028;28;20284;-66
2021/11/04 02:02:57;;;;;;;;;;;410.10;1920.00;;;;;;5117004;28;19911;-67
2021/11/04 02:05:27;;;;;;;;;;;410.10;1945.60;;;;;;5116892;28;19903;-66
2021/11/04 02:07:52;;;;;;;;;;;410.10;1945.60;;;;;;5116886;28;19911;-66
2021/11/04 02:10:30;;;;;;;;;;;410.10;1945.60;;;;;;5098330;28;20265;-67
2021/11/04 02:13:14;;;;;;;;;;;410.10;1945.60;;;;;;5116739;28;19919;-66
2021/11/04 02:15:42;;;;;;;;;;;410.10;1945.60;;;;;;5116777;28;19903;-66
2021/11/04 02:18:08;;;;;;;;;;;410.10;1945.60;;;;;;5119277;28;19903;-66
2021/11/04 02:20:36;;;;;;;;;;;410.20;1945.60;;;;;;5116730;28;19904;-66
2021/11/04 02:23:04;;;;;;;;;;;410.10;1945.60;;;;;;5098007;28;19992;-67
2021/11/04 02:25:32;;;;;;;;;;;410.20;1945.60;;;;;;5116653;28;19904;-67
2021/11/04 02:27:59;;;;;;;;;;;410.20;1945.60;;;;;;5116626;28;19911;-67
2021/11/04 02:30:25;;;;;;;;;;;410.20;1945.60;;;;;;5098163;28;20345;-67
2021/11/04 02:32:52;;;;;;;;;;;410.20;1945.60;;;;;;5116436;28;19918;-67
2021/11/04 02:35:17;;;;;;;;;;;410.30;1945.60;;;;;;5116397;28;19943;-66
2021/11/04 02:37:44;;;;;;;;;;;410.30;1945.60;;;;;;5116304;28;20269;-66
2021/11/04 02:40:10;;;;;;;;;;;410.30;1945.60;;;;;;5116334;28;19903;-67
2021/11/04 02:42:38;;;;;;;;;;;410.40;1945.60;;;;;;5114969;28;19954;-67
2021/11/04 02:45:04;;;;;;;;;;;410.40;1920.00;;;;;;5116239;28;19911;-66
2021/11/04 02:47:30;;;;;;;;;;;410.40;1945.60;;;;;;5115860;28;19915;-66
2021/11/04 02:49:56;;;;;;;;;;;410.40;1945.60;;;;;;5116072;28;19926;-67
2021/11/04 02:52:22;;;;;;;;;;;410.40;1920.00;;;;;;5115958;28;20022;-67
2021/11/04 02:54:51;;;;;;;;;;;410.40;1945.60;;;;;;5115824;28;20242;-66
2021/11/04 02:57:16;;;;;;;;;;;410.40;1945.60;;;;;;5116010;28;20022;-66
2021/11/04 02:59:42;;;;;;;;;;;410.40;1945.60;;;;;;5115839;28;20005;-66
2021/11/04 03:02:08;;;;;;;;;;;410.40;1945.60;;;;;;5115687;28;20319;-67
2021/11/04 03:04:33;;;;;;;;;;;410.50;1945.60;;;;;;5096889;28;19904;-67
2021/11/04 03:06:59;;;;;;;;;;;410.50;1920.00;;;;;;5097051;28;19904;-66
2021/11/04 03:09:24;;;;;;;;;;;410.50;1920.00;;;;;;5115672;28;19968;-67
2021/11/04 03:11:50;;;;;;;;;;;410.50;1920.00;;;;;;5097377;28;20030;-67
2021/11/04 03:14:16;;;;;;;;;;;410.50;1945.60;;;;;;5097062;28;19911;-66
2021/11/04 03:16:43;;;;;;;;;;;410.50;1945.60;;;;;;5115585;28;19904;-66
2021/11/04 03:19:11;;;;;;;;;;;435.20;1945.60;;;;;;5114557;28;19904;-67
2021/11/04 03:21:38;;;;;;;;;;;435.20;1920.00;;;;;;5114566;28;19904;-66
2021/11/04 03:24:04;;;;;;;;;;;435.20;1920.00;;;;;;5097135;28;19911;-66
2021/11/04 03:26:30;;;;;;;;;;;435.20;1920.00;;;;;;5115418;28;19908;-66
2021/11/04 03:28:58;;;;;;;;;;;435.20;1920.00;;;;;;5115511;28;19946;-66
2021/11/04 03:31:24;;;;;;;;;;;435.20;1920.00;;;;;;5115289;28;19912;-66
2021/11/04 03:33:50;;;;;;;;;;;435.30;1920.00;;;;;;5115096;28;20376;-66
2021/11/04 03:36:16;;;;;;;;;;;435.30;1920.00;;;;;;5096361;28;19903;-66
2021/11/04 03:38:42;;;;;;;;;;;435.30;1920.00;;;;;;5115295;28;19982;-66
2021/11/04 03:41:09;;;;;;;;;;;435.30;1894.40;;;;;;5096400;28;19948;-66
2021/11/04 03:43:36;;;;;;;;;;;435.30;1894.40;;;;;;5115127;28;20387;-66
2021/11/04 03:46:02;;;;;;;;;;;435.40;1920.00;;;;;;5115119;28;19910;-66
2021/11/04 03:48:28;;;;;;;;;;;435.40;1920.00;;;;;;5114686;28;19923;-66
2021/11/04 03:50:54;;;;;;;;;;;435.40;1894.40;;;;;;5096141;28;19904;-67
2021/11/04 03:53:20;;;;;;;;;;;435.40;1894.40;;;;;;5114882;28;19904;-66
2021/11/04 03:55:45;;;;;;;;;;;435.40;1894.40;;;;;;5114944;28;20257;-66
2021/11/04 03:58:12;;;;;;;;;;;435.40;1894.40;;;;;;5114812;28;20274;-66
2021/11/04 04:00:37;;;;;;;;;;;435.40;1894.40;;;;;;5114760;28;19903;-66
2021/11/04 04:03:03;;;;;;;;;;;435.50;1894.40;;;;;;5114838;28;19990;-66
2021/11/04 04:05:30;;;;;;;;;;;435.50;1868.80;;;;;;5114805;28;20346;-66
2021/11/04 04:07:56;;;;;;;;;;;435.60;1868.80;;;;;;5096106;28;19903;-67
2021/11/04 04:10:21;;;;;;;;;;;435.60;1868.80;;;;;;5115543;28;19904;-66
2021/11/04 04:12:47;;;;;;;;;;;435.60;1868.80;;;;;;5114574;28;19912;-66
2021/11/04 04:15:12;;;;;;;;;;;435.60;1894.40;;;;;;5114736;28;19911;-66
2021/11/04 04:17:38;;;;;;;;;;;435.60;1894.40;;;;;;5114721;28;19908;-66
2021/11/04 04:20:04;;;;;;;;;;;435.60;1868.80;;;;;;5113973;28;19908;-66
2021/11/04 04:22:30;;;;;;;;;;;435.70;1868.80;;;;;;5114897;28;19904;-66
2021/11/04 04:24:55;;;;;;;;;;;435.60;1868.80;;;;;;5114702;28;20394;-66
2021/11/04 04:27:21;;;;;;;;;;;435.70;1868.80;;;;;;5114716;28;19904;-66
2021/11/04 04:29:46;;;;;;;;;;;435.70;1868.80;;;;;;5095858;28;19918;-67
2021/11/04 04:32:12;;;;;;;;;;;435.70;1868.80;;;;;;5114365;28;19912;-66
2021/11/04 04:34:38;;;;;;;;;;;435.70;1868.80;;;;;;5114261;28;19946;-66
2021/11/04 04:37:04;;;;;;;;;;;435.70;1868.80;;;;;;5095665;28;19942;-67
2021/11/04 04:39:32;;;;;;;;;;;435.70;1868.80;;;;;;5114250;28;20410;-66
2021/11/04 04:41:58;;;;;;;;;;;435.70;1868.80;;;;;;5114567;28;20254;-66
2021/11/04 04:44:24;;;;;;;;;;;435.80;1843.20;;;;;;5114442;28;19966;-67
2021/11/04 04:46:49;;;;;;;;;;;435.70;1843.20;;;;;;5114316;28;19919;-66
2021/11/04 04:49:15;;;;;;;;;;;435.80;1843.20;;;;;;5095599;28;19904;-67
2021/11/04 04:51:40;;;;;;;;;;;435.80;1843.20;;;;;;5095503;28;19963;-66
2021/11/04 04:54:06;;;;;;;;;;;435.80;1843.20;;;;;;5114371;28;19917;-66
2021/11/04 04:56:32;;;;;;;;;;;435.90;1843.20;;;;;;5113974;28;19904;-66
2021/11/04 04:58:59;;;;;;;;;;;435.90;1843.20;;;;;;5114427;28;19956;-66
2021/11/04 05:01:24;;;;;;;;;;;435.90;1843.20;;;;;;5114096;28;19907;-66
2021/11/04 05:03:50;;;;;;;;;;;435.90;1843.20;;;;;;5113221;28;20359;-66
2021/11/04 05:06:15;;;;;;;;;;;435.90;1843.20;;;;;;5117570;28;19908;-66
2021/11/04 05:08:41;;;;;;;;;;;435.90;1843.20;;;;;;5118049;28;19907;-66
2021/11/04 05:11:07;;;;;;;;;;;435.90;1843.20;;;;;;5118279;28;19919;-66
2021/11/04 05:13:32;;;;;;;;;;;435.90;1843.20;;;;;;5118209;28;19911;-66
2021/11/04 05:15:59;;;;;;;;;;;436.00;1843.20;;;;;;5117973;28;19911;-66
2021/11/04 05:18:24;;;;;;;;;;;436.00;1843.20;;;;;;5117931;28;19968;-66
2021/11/04 05:20:50;;;;;;;;;;;436.00;1843.20;;;;;;5117721;28;20002;-66
2021/11/04 05:23:15;;;;;;;;;;;436.00;1843.20;;;;;;5117320;28;19904;-66
2021/11/04 05:25:41;;;;;;;;;;;436.00;1817.60;;;;;;5117453;28;19903;-66
2021/11/04 05:28:07;;;;;;;;;;;436.00;1843.20;;;;;;5117814;28;20371;-67
2021/11/04 05:30:32;;;;;;;;;;;436.00;1817.60;;;;;;5117035;28;19904;-67
2021/11/04 05:32:58;;;;;;;;;;;436.00;1817.60;;;;;;5117528;28;20319;-66
2021/11/04 05:35:24;;;;;;;;;;;436.10;1817.60;;;;;;5116969;28;20308;-66
2021/11/04 05:37:49;;;;;;;;;;;436.10;1817.60;;;;;;5117091;28;19990;-66
2021/11/04 05:40:15;;;;;;;;;;;436.10;1817.60;;;;;;5117495;28;19919;-67
2021/11/04 05:42:41;;;;;;;;;;;436.10;1817.60;;;;;;5117548;28;20405;-66
2021/11/04 05:45:07;;;;;;;;;;;460.80;1843.20;;;;;;5117323;28;19948;-66
2021/11/04 05:47:33;;;;;;;;;;;460.80;1817.60;;;;;;5098497;28;20319;-66
2021/11/04 05:49:58;;;;;;;;;;;460.80;1843.20;;;;;;5117372;28;20314;-66
2021/11/04 05:52:24;;;;;;;;;;;460.80;1817.60;;;;;;5117022;28;19912;-67
2021/11/04 05:54:53;;;;;;;;;;;460.80;1817.60;;;;;;5117318;28;19910;-66
2021/11/04 05:57:19;;;;;;;;;;;460.80;1817.60;;;;;;5117189;28;19904;-66
2021/11/04 05:59:44;;;;;;;;;;;460.90;1817.60;;;;;;5117219;28;19960;-67
2021/11/04 06:02:10;;;;;;;;;;;460.90;1817.60;;;;;;5117034;28;19911;-66
2021/11/04 06:04:36;;;;;;;;;;;460.90;1817.60;;;;;;5117041;28;19907;-67
2021/11/04 06:07:04;;;;;;;;;;;460.90;1817.60;;;;;;5117109;28;19910;-66
2021/11/04 06:09:33;;;;;;;;;;;460.90;1817.60;;;;;;5117036;28;19904;-67
2021/11/04 06:11:59;;;;;;;;;;;460.90;1817.60;;;;;;5116882;28;19994;-66
2021/11/04 06:14:24;;;;;;;;;;;460.90;1817.60;;;;;;5116381;28;19946;-66
2021/11/04 06:16:51;;;;;;;;;;;460.90;1817.60;;;;;;5115431;28;19911;-66
2021/11/04 06:19:17;;;;;;;;;;;460.90;1817.60;;;;;;5098467;28;19903;-66
2021/11/04 06:21:43;;;;;;;;;;;460.90;1817.60;;;;;;5116525;28;19949;-67
2021/11/04 06:24:08;;;;;;;;;;;460.90;1817.60;;;;;;5116515;28;19904;-66
2021/11/04 06:26:34;;;;;;;;;;;460.90;1817.60;;;;;;5116548;28;19908;-66
2021/11/04 06:28:59;;;;;;;;;;;460.90;1817.60;;;;;;5116908;28;19939;-66
2021/11/04 06:31:25;;;;;;;;;;;460.90;1817.60;;;;;;5116774;28;19981;-66
2021/11/04 06:33:50;;;;;;;;;;;460.90;1817.60;;;;;;5116494;28;19904;-66
2021/11/04 06:36:16;;;;;;;;;;;460.90;1817.60;;;;;;5115433;28;19911;-67
2021/11/04 06:38:41;;;;;;;;;;;460.90;1817.60;;;;;;5116536;28;20322;-66
2021/11/04 06:41:07;;;;;;;;;;;460.90;1817.60;;;;;;5116280;28;19911;-66
2021/11/04 06:43:32;;;;;;;;;;;460.90;1817.60;;;;;;5115552;28;20032;-66
2021/11/04 06:46:00;;;;;;;;;;;461.00;1817.60;;;;;;5116268;28;19927;-66
2021/11/04 06:48:26;;;;;;;;;;;461.00;1817.60;;;;;;5116143;28;19923;-66
2021/11/04 06:50:55;;;;;;;;;;;461.00;1817.60;;;;;;5097636;28;19927;-66
2021/11/04 06:53:22;;;;;;;;;;;461.00;1817.60;;;;;;5115842;28;19904;-66
2021/11/04 06:55:50;;;;;;;;;;;461.00;1817.60;;;;;;5116041;28;19904;-66
2021/11/04 06:58:18;;;;;;;;;;;461.00;1817.60;;;;;;5097594;28;20253;-66
2021/11/04 07:00:45;;;;;;;;;;;461.10;1817.60;;;;;;5115820;28;19910;-66
2021/11/04 07:03:14;;;;;;;;;;;461.10;1817.60;;;;;;5115974;28;19903;-66
2021/11/04 07:05:43;;;;;;;;;;;461.10;1817.60;;;;;;5115561;28;19968;-66
2021/11/04 07:08:19;;;;;;;;;;;461.10;1817.60;;;;;;5115840;28;19903;-66
2021/11/04 07:10:45;;;;;;;;;;;461.20;1817.60;;;;;;5115671;28;19908;-66
2021/11/04 07:13:12;;;;;;;;;;;461.20;1817.60;;;;;;5114945;28;20028;-66
2021/11/04 07:15:38;;;;;;;;;;;461.20;1817.60;;;;;;5114817;28;19904;-66
2021/11/04 07:18:04;;;;;;;;;;;461.30;1817.60;;;;;;5115795;28;19972;-66
2021/11/04 07:20:29;;;;;;;;;;;461.30;1817.60;;;;;;5115175;28;19903;-66
2021/11/04 07:22:56;;;;;;;;;;;461.40;1792.00;;;;;;5115477;28;20002;-67
2021/11/04 07:25:23;;;;;;;;;;;461.50;1817.60;;;;;;5096157;28;19910;-67
2021/11/04 07:27:58;;;;;;;;;;;461.50;1817.60;;;;;;5115072;28;19903;-67
2021/11/04 07:30:24;;;;;;;;;;;461.50;1792.00;;;;;;5115205;28;20353;-67
2021/11/04 07:32:51;;;;;;;;;;;461.60;1792.00;;;;;;5115134;28;19911;-67
2021/11/04 07:35:18;;;;;;;;;;;461.60;1792.00;;;;;;5096287;28;19903;-67
2021/11/04 07:37:44;;;;;;;;;;;461.60;1766.40;;;;;;5114684;28;19904;-67
2021/11/04 07:40:10;;;;;;;;;;;461.70;1766.40;;;;;;5092213;28;19935;-68
2021/11/04 07:42:36;;;;;;;;;;;486.40;1766.40;;;;;;5094650;28;20264;-67
2021/11/04 07:45:02;;;;;;;;;;;486.40;1766.40;;;;;;5115192;28;19904;-67
2021/11/04 07:47:27;;;;;;;;;;;486.50;1766.40;;;;;;5115003;28;19916;-67
2021/11/04 07:49:53;;;;;;;;;;;486.50;1766.40;;;;;;5096337;28;19904;-68
2021/11/04 07:52:19;;;;;;;;;;;486.60;1766.40;;;;;;5115232;28;19912;-68
2021/11/04 07:54:44;;;;;;;;;;;486.70;1740.80;;;;;;5114881;28;19907;-67
2021/11/04 07:57:10;;;;;;;;;;;486.70;1740.80;;;;;;5114648;28;19948;-67
2021/11/04 07:59:36;;;;;;;;;;;486.80;1740.80;;;;;;5094138;28;20307;-67
2021/11/04 08:02:01;;;;;;;;;;;486.80;1740.80;;;;;;5094765;28;19910;-67
2021/11/04 08:04:27;;;;;;;;;;;486.90;1715.20;;;;;;5111905;28;19904;-66
2021/11/04 08:06:53;;;;;;;;;;;487.00;1715.20;;;;;;5114248;28;19904;-68
2021/11/04 08:09:19;;;;;;;;;;;487.10;1715.20;;;;;;5108408;28;20002;-68
2021/11/04 08:11:45;;;;;;;;;;;487.10;1715.20;;;;;;5074499;28;19923;-68
2021/11/04 08:14:11;;;;;;;;;;;487.20;1689.60;;;;;;5089849;28;19916;-68
2021/11/04 08:16:36;;;;;;;;;;;487.30;1664.00;;;;;;5091887;28;19908;-68
2021/11/04 08:19:02;;;;;;;;;;;512.00;1664.00;;;;;;5094309;28;19903;-68
2021/11/04 08:21:27;;;;;;;;;;;512.00;1664.00;;;;;;5077366;28;19951;-68
2021/11/04 08:23:53;;;;;;;;;;;512.10;1664.00;;;;;;5091321;28;19912;-67
2021/11/04 08:26:19;;;;;;;;;;;512.20;1638.40;;;;;;5097146;28;20227;-69
2021/11/04 08:28:44;;;;;;;;;;;512.20;1638.40;;;;;;5101321;28;19920;-67
2021/11/04 08:31:10;;;;;;;;;;;512.30;1638.40;;;;;;5073910;28;19957;-67
2021/11/04 08:33:35;;;;;;;;;;;512.30;1638.40;;;;;;5074006;28;19911;-68
2021/11/04 08:36:01;;;;;;;;;;;512.30;1638.40;;;;;;5079602;28;19908;-67
2021/11/04 08:38:26;;;;;;;;;;;512.40;1638.40;;;;;;5096227;28;19910;-67
2021/11/04 08:40:52;;;;;;;;;;;512.40;1638.40;;;;;;5095281;28;19950;-67
2021/11/04 08:43:18;;;;;;;;;;;512.40;1612.80;;;;;;5082402;28;19995;-67
2021/11/04 08:45:43;;;;;;;;;;;512.40;1638.40;;;;;;5096402;28;19904;-67
2021/11/04 08:48:09;;;;;;;;;;;512.50;1638.40;;;;;;5099659;28;19947;-67
2021/11/04 08:50:35;;;;;;;;;;;512.50;1638.40;;;;;;5075853;28;19913;-67
2021/11/04 08:53:01;;;;;;;;;;;512.50;1638.40;;;;;;5077576;28;20259;-67
2021/11/04 08:55:26;;;;;;;;;;;512.60;1638.40;;;;;;5077599;28;19911;-68
2021/11/04 08:57:52;;;;;;;;;;;512.70;1638.40;;;;;;5077605;28;19936;-68
2021/11/04 09:00:19;;;;;;;;;;;512.70;1638.40;;;;;;5077733;28;19936;-67
2021/11/04 09:02:44;;;;;;;;;;;512.70;1638.40;;;;;;5081106;28;19995;-67
2021/11/04 09:05:10;;;;;;;;;;;512.80;1638.40;;;;;;5118153;28;19954;-67
2021/11/04 09:07:40;;;;;;;;;;;512.80;1638.40;;;;;;5105238;28;19983;-68
2021/11/04 09:10:07;;;;;;;;;;;512.80;1638.40;;;;;;5117943;28;19904;-68
2021/11/04 09:12:34;;;;;;;;;;;512.90;1638.40;;;;;;5117518;28;19964;-68
2021/11/04 09:14:59;;;;;;;;;;;537.60;1664.00;;;;;;5099316;28;20269;-68
2021/11/04 09:17:25;;;;;;;;;;;537.60;1664.00;;;;;;5117799;28;19960;-68
2021/11/04 09:19:51;;;;;;;;;;;537.70;1664.00;;;;;;5099470;28;19927;-68
2021/11/04 09:22:19;;;;;;;;;;;537.80;1664.00;;;;;;5117767;28;19957;-68
2021/11/04 09:24:44;;;;;;;;;;;537.90;1638.40;;;;;;5117986;28;19908;-68
2021/11/04 09:27:10;;;;;;;;;;;538.00;1638.40;;;;;;5117817;28;19910;-68
2021/11/04 09:29:36;;;;;;;;;;;538.10;1612.80;;;;;;5117321;28;20262;-68
2021/11/04 09:32:06;;;;;;;;;;;538.20;1612.80;;;;;;5117691;28;19912;-68
2021/11/04 09:34:31;;;;;;;;;;;538.20;1612.80;;;;;;5117270;28;20330;-68
2021/11/04 09:36:57;;;;;;;;;;;538.30;1612.80;;;;;;5117699;28;19935;-68
2021/11/04 09:39:22;;;;;;;;;;;538.50;1612.80;;;;;;5117583;28;19964;-68
2021/11/04 09:41:49;;;;;;;;;;;563.20;1587.20;;;;;;5117592;28;19910;-68
2021/11/04 09:44:15;;;;;;;;;;;563.30;1587.20;;;;;;5117478;28;19907;-68
2021/11/04 09:46:40;;;;;;;;;;;563.40;1561.60;;;;;;5117003;28;19927;-68
2021/11/04 09:49:06;;;;;;;;;;;563.60;1561.60;;;;;;5099064;28;19911;-68
2021/11/04 09:51:32;;;;;;;;;;;563.60;1561.60;;;;;;5116048;28;19922;-68
2021/11/04 09:53:57;;;;;;;;;;;563.70;1561.60;;;;;;5116867;28;19911;-68
2021/11/04 09:56:23;;;;;;;;;;;563.70;1536.00;;;;;;5097999;28;19908;-68
2021/11/04 09:58:49;;;;;;;;;;;563.80;1510.40;;;;;;5117072;28;19943;-68
2021/11/04 10:01:20;;;;;;;;;;;563.90;1536.00;;;;;;5116805;28;19968;-68
2021/11/04 10:03:46;;;;;;;;;;;564.00;1510.40;;;;;;5117113;28;19904;-67
2021/11/04 10:06:22;;;;;;;;;;;564.10;1484.80;;;;;;5116150;28;20320;-68
2021/11/04 10:08:52;;;;;;;;;;;588.80;1484.80;;;;;;5117087;28;20265;-68
2021/11/04 10:11:18;;;;;;;;;;;588.80;1459.20;;;;;;5116718;28;19957;-68
2021/11/04 10:13:44;;;;;;;;;;;588.80;1459.20;;;;;;5117052;28;19973;-68
2021/11/04 10:16:10;;;;;;;;;;;588.90;1459.20;;;;;;5116892;28;19938;-68
2021/11/04 10:18:39;;;;;;;;;;;588.90;1433.60;;;;;;5098205;28;19939;-68
2021/11/04 10:21:05;;;;;;;;;;;588.90;1459.20;;;;;;5116680;28;19923;-68
2021/11/04 10:23:38;;;;;;;;;;;588.90;1459.20;;;;;;5116910;28;19904;-68
2021/11/04 10:26:07;;;;;;;;;;;588.90;1433.60;;;;;;5116698;28;19931;-68
2021/11/04 10:28:33;;;;;;;;;;;588.90;1433.60;;;;;;5116767;28;20359;-68
2021/11/04 10:30:59;;;;;;;;;;;588.80;1459.20;;;;;;5097682;28;20010;-68
2021/11/04 10:33:29;;;;;;;;;;;588.80;1433.60;;;;;;5097843;28;19907;-68
2021/11/04 10:35:56;;;;;;;;;;;588.80;1433.60;;;;;;5116564;28;20273;-68
2021/11/04 10:38:28;;;;;;;;;;;588.80;1433.60;;;;;;5116650;28;20353;-68
2021/11/04 10:40:53;;;;;;;;;;;588.80;1459.20;;;;;;5116166;28;19963;-68
2021/11/04 10:43:19;;;;;;;;;;;588.80;1433.60;;;;;;5116373;28;20376;-68
2021/11/04 10:45:45;;;;;;;;;;;564.10;1433.60;;;;;;5116611;28;19914;-68
2021/11/04 10:48:18;;;;;;;;;;;588.80;1433.60;;;;;;5115965;28;20002;-68
2021/11/04 10:50:43;;;;;;;;;;;588.80;1433.60;;;;;;5116070;28;20343;-68
2021/11/04 10:53:12;;;;;;;;;;;588.80;1459.20;;;;;;5115886;28;19984;-68
2021/11/04 10:55:38;;;;;;;;;;;588.90;1459.20;;;;;;5116175;28;20238;-68
2021/11/04 10:58:07;;;;;;;;;;;589.00;1433.60;;;;;;5115921;28;19957;-68
2021/11/04 11:00:41;;;;;;;;;;;589.10;1433.60;;;;;;5115821;28;19931;-68
2021/11/04 11:03:09;;;;;;;;;;;589.20;1408.00;;;;;;5115330;28;19939;-68
2021/11/04 11:05:35;;;;;;;;;;;589.40;1408.00;;;;;;5116083;28;19908;-68
2021/11/04 11:08:01;;;;;;;;;;;589.40;1408.00;;;;;;5097248;28;19933;-68
2021/11/04 11:10:27;;;;;;;;;;;589.50;1382.40;;;;;;5097273;28;19956;-68
2021/11/04 11:12:52;;;;;;;;;;;589.60;1382.40;;;;;;5115697;28;19915;-68
2021/11/04 11:15:18;;;;;;;;;;;589.70;1382.40;;;;;;5115794;28;19908;-68
2021/11/04 11:17:45;;;;;;;;;;;614.40;1356.80;;;;;;5115786;28;19904;-68
2021/11/04 11:20:11;;;;;;;;;;;614.40;1356.80;;;;;;5115711;28;19910;-68
2021/11/04 11:22:39;;;;;;;;;;;614.50;1356.80;;;;;;5097249;28;19948;-68
2021/11/04 11:25:05;;;;;;;;;;;614.60;1356.80;;;;;;5115405;28;19907;-68
2021/11/04 11:27:30;;;;;;;;;;;614.60;1331.20;;;;;;5115504;28;20048;-68
2021/11/04 11:29:56;;;;;;;;;;;614.80;1331.20;;;;;;5115737;28;19927;-68
2021/11/04 11:32:24;;;;;;;;;;;614.80;1305.60;;;;;;5115326;28;19919;-68
2021/11/04 11:34:50;;;;;;;;;;;614.90;1305.60;;;;;;5115350;28;19907;-68
2021/11/04 11:37:22;;;;;;;;;;;614.90;1305.60;;;;;;5096909;28;19911;-68
2021/11/04 11:40:09;;;;;;;;;;;614.90;1305.60;;;;;;5115169;28;19994;-68
2021/11/04 11:42:35;;;;;;;;;;;614.90;1305.60;;;;;;5114951;28;20359;-68
2021/11/04 11:45:10;;;;;;;;;;;614.90;1305.60;;;;;;5115149;28;19903;-68
2021/11/04 11:47:38;;;;;;;;;;;614.90;1305.60;;;;;;5114921;28;20002;-68
2021/11/04 11:50:26;;;;;;;;;;;614.90;1305.60;;;;;;5114855;28;19904;-68
2021/11/04 11:52:56;;;;;;;;;;;614.90;1305.60;;;;;;5114908;28;20407;-68
2021/11/04 11:55:36;;;;;;;;;;;614.90;1305.60;;;;;;5115287;28;20273;-68
2021/11/04 11:58:18;;;;;;;;;;;614.90;1305.60;;;;;;5114780;28;19918;-68
2021/11/04 12:00:56;;;;;;;;;;;615.00;1280.00;;;;;;5096466;28;20287;-68
2021/11/04 12:03:31;;;;;;;;;;;615.00;1280.00;;;;;;5114917;28;20281;-68
2021/11/04 12:05:56;;;;;;;;;;;615.00;1280.00;;;;;;5114628;28;20361;-68
2021/11/04 12:08:28;;;;;;;;;;;614.90;1280.00;;;;;;5114898;28;19910;-68
2021/11/04 12:11:01;;;;;;;;;;;614.90;1305.60;;;;;;5114678;28;19909;-68
2021/11/04 12:13:31;;;;;;;;;;;614.90;1305.60;;;;;;5114752;28;19956;-68
2021/11/04 12:16:09;;;;;;;;;;;614.80;1305.60;;;;;;5114554;28;19947;-68
2021/11/04 12:18:36;;;;;;;;;;;614.70;1305.60;;;;;;5114967;28;19908;-68
2021/11/04 12:21:03;;;;;;;;;;;614.70;1331.20;;;;;;5114349;28;19907;-68
2021/11/04 12:23:35;;;;;;;;;;;614.60;1356.80;;;;;;5114614;28;19926;-68
2021/11/04 12:26:02;;;;;;;;;;;614.50;1382.40;;;;;;5114603;28;19907;-68
2021/11/04 12:28:39;;;;;;;;;;;614.50;1433.60;;;;;;5096315;28;19911;-68
2021/11/04 12:31:11;;;;;;;;;;;614.40;1459.20;;;;;;5096123;28;20258;-68
2021/11/04 12:33:36;;;;;;;;;;;589.70;1484.80;;;;;;5095798;28;19956;-68
2021/11/04 12:36:03;;;;;;;;;;;589.60;1510.40;;;;;;5114466;28;19911;-68
2021/11/04 12:38:45;;;;;;;;;;;589.50;1510.40;;;;;;5114423;28;19903;-68
2021/11/04 12:41:10;;;;;;;;;;;589.40;1510.40;;;;;;5114644;28;19904;-68
2021/11/04 12:43:37;;;;;;;;;;;589.20;1510.40;;;;;;5095711;28;19904;-68
2021/11/04 12:46:16;;;;;;;;;;;589.20;1510.40;;;;;;5114194;28;19911;-68
2021/11/04 12:49:02;;;;;;;;;;;589.10;1510.40;;;;;;5114201;28;20267;-68
2021/11/04 12:51:43;;;;;;;;;;;589.00;1536.00;;;;;;5113446;28;19919;-68
2021/11/04 12:54:14;;;;;;;;;;;588.90;1561.60;;;;;;5114348;28;19926;-68
2021/11/04 12:56:53;;;;;;;;;;;588.80;1587.20;;;;;;5114166;28;19946;-68
2021/11/04 12:59:28;;;;;;;;;;;588.80;1638.40;;;;;;5114464;28;19903;-68
2021/11/04 13:02:09;;;;;;;;;;;564.10;1664.00;;;;;;5113954;28;19904;-68
2021/11/04 13:04:55;;;;;;;;;;;563.90;1715.20;;;;;;5095974;28;19904;-68
2021/11/04 13:07:25;;;;;;;;;;;563.70;1715.20;;;;;;5113518;28;20399;-68
2021/11/04 13:09:53;;;;;;;;;;;563.70;1715.20;;;;;;5114193;28;19926;-68
2021/11/04 13:12:26;;;;;;;;;;;563.60;1740.80;;;;;;5114378;28;19937;-68
2021/11/04 13:14:56;;;;;;;;;;;563.60;1740.80;;;;;;5114564;28;19907;-68
2021/11/04 13:17:28;;;;;;;;;;;563.50;1740.80;;;;;;5114250;28;19911;-68
2021/11/04 13:19:54;;;;;;;;;;;563.40;1740.80;;;;;;5114081;28;19957;-68
2021/11/04 13:22:20;;;;;;;;;;;563.30;1740.80;;;;;;5113931;28;19946;-68
2021/11/04 13:24:46;;;;;;;;;;;563.30;1740.80;;;;;;5095705;28;20003;-67
2021/11/04 13:27:13;;;;;;;;;;;563.20;1766.40;;;;;;5117244;28;19994;-68
2021/11/04 13:29:49;;;;;;;;;;;563.20;1766.40;;;;;;5117177;28;20357;-68
2021/11/04 13:32:14;;;;;;;;;;;563.20;1792.00;;;;;;5117750;28;19924;-68
2021/11/04 13:34:40;;;;;;;;;;;538.50;1766.40;;;;;;5117477;28;20363;-68
2021/11/04 13:37:16;;;;;;;;;;;538.50;1766.40;;;;;;5117581;28;19907;-68
2021/11/04 13:39:42;;;;;;;;;;;538.40;1792.00;;;;;;5117567;28;19903;-68
2021/11/04 13:42:18;;;;;;;;;;;538.40;1792.00;;;;;;5117792;28;19910;-68